sensor_id;sensor_type;location;lat;lon;timestamp;temperature;humidity
76120;DHT22;64852;48.092;-1.640;2023-01-01T00:02:03;16.60;99.90
76120;DHT22;64852;48.092;-1.640;2023-01-01T00:04:29;16.60;99.90
76120;DHT22;64852;48.092;-1.640;2023-01-01T00:06:56;16.70;99.90
76120;DHT22;64852;48.092;-1.640;2023-01-01T00:09:21;16.40;99.90
76120;DHT22;64852;48.092;-1.640;2023-01-01T00:12:06;16.30;99.90
76120;DHT22;64852;48.092;-1.640;2023-01-01T00:14:31;16.40;99.90
76120;DHT22;64852;48.092;-1.640;2023-01-01T00:16:57;16.60;99.90
76120;DHT22;64852;48.092;-1.640;2023-01-01T00:19:23;16.60;99.90
76120;DHT22;64852;48.092;-1.640;2023-01-01T00:21:48;16.50;99.90
76120;DHT22;64852;48.092;-1.640;2023-01-01T00:24:14;16.50;99.90
76120;DHT22;64852;48.092;-1.640;2023-01-01T00:26:40;16.40;99.90
76120;DHT22;64852;48.092;-1.640;2023-01-01T00:29:05;16.40;99.90
76120;DHT22;64852;48.092;-1.640;2023-01-01T00:31:31;16.40;99.90
76120;DHT22;64852;48.092;-1.640;2023-01-01T00:33:57;16.40;99.90
76120;DHT22;64852;48.092;-1.640;2023-01-01T00:36:24;16.30;99.90
76120;DHT22;64852;48.092;-1.640;2023-01-01T00:38:50;16.50;99.90
76120;DHT22;64852;48.092;-1.640;2023-01-01T00:41:17;16.30;99.90
76120;DHT22;64852;48.092;-1.640;2023-01-01T00:43:42;16.40;99.90
76120;DHT22;64852;48.092;-1.640;2023-01-01T00:46:08;16.20;99.90
76120;DHT22;64852;48.092;-1.640;2023-01-01T00:48:34;16.30;99.90
76120;DHT22;64852;48.092;-1.640;2023-01-01T00:51:00;16.40;99.90
76120;DHT22;64852;48.092;-1.640;2023-01-01T00:53:26;16.50;99.90
76120;DHT22;64852;48.092;-1.640;2023-01-01T00:55:52;16.60;99.90
76120;DHT22;64852;48.092;-1.640;2023-01-01T00:58:18;16.70;99.90
76120;DHT22;64852;48.092;-1.640;2023-01-01T01:00:44;16.50;99.90
76120;DHT22;64852;48.092;-1.640;2023-01-01T01:03:11;16.70;99.90
76120;DHT22;64852;48.092;-1.640;2023-01-01T01:06:25;16.70;99.90
76120;DHT22;64852;48.092;-1.640;2023-01-01T01:08:46;16.60;99.90
76120;DHT22;64852;48.092;-1.640;2023-01-01T01:11:20;16.60;99.90
76120;DHT22;64852;48.092;-1.640;2023-01-01T01:13:48;16.70;99.90
76120;DHT22;64852;48.092;-1.640;2023-01-01T01:16:34;16.80;99.90
76120;DHT22;64852;48.092;-1.640;2023-01-01T01:19:01;16.80;99.90
76120;DHT22;64852;48.092;-1.640;2023-01-01T01:21:29;16.70;99.90
76120;DHT22;64852;48.092;-1.640;2023-01-01T01:23:59;16.70;99.90
76120;DHT22;64852;48.092;-1.640;2023-01-01T01:26:28;16.70;99.90
76120;DHT22;64852;48.092;-1.640;2023-01-01T01:28:54;16.60;99.90
76120;DHT22;64852;48.092;-1.640;2023-01-01T01:31:21;16.70;99.90
76120;DHT22;64852;48.092;-1.640;2023-01-01T01:33:48;16.90;99.90
76120;DHT22;64852;48.092;-1.640;2023-01-01T01:36:15;16.60;99.90
76120;DHT22;64852;48.092;-1.640;2023-01-01T01:38:41;16.40;99.90
76120;DHT22;64852;48.092;-1.640;2023-01-01T01:41:07;16.50;99.90
76120;DHT22;64852;48.092;-1.640;2023-01-01T01:46:12;16.60;99.90
76120;DHT22;64852;48.092;-1.640;2023-01-01T01:48:43;16.50;99.90
76120;DHT22;64852;48.092;-1.640;2023-01-01T01:51:09;16.50;99.90
76120;DHT22;64852;48.092;-1.640;2023-01-01T01:53:39;16.40;99.90
76120;DHT22;64852;48.092;-1.640;2023-01-01T01:56:09;16.40;99.90
76120;DHT22;64852;48.092;-1.640;2023-01-01T01:58:36;16.10;99.90
76120;DHT22;64852;48.092;-1.640;2023-01-01T02:01:02;16.10;99.90
76120;DHT22;64852;48.092;-1.640;2023-01-01T02:03:35;16.00;99.90
76120;DHT22;64852;48.092;-1.640;2023-01-01T02:06:04;16.00;99.90
76120;DHT22;64852;48.092;-1.640;2023-01-01T02:08:30;16.00;99.90
76120;DHT22;64852;48.092;-1.640;2023-01-01T02:10:56;15.80;99.90
76120;DHT22;64852;48.092;-1.640;2023-01-01T02:13:22;15.90;99.90
76120;DHT22;64852;48.092;-1.640;2023-01-01T02:18:24;15.40;99.90
76120;DHT22;64852;48.092;-1.640;2023-01-01T02:21:06;15.50;99.90
76120;DHT22;64852;48.092;-1.640;2023-01-01T02:31:53;15.60;99.90
76120;DHT22;64852;48.092;-1.640;2023-01-01T02:34:25;15.70;99.90
76120;DHT22;64852;48.092;-1.640;2023-01-01T02:36:53;15.60;99.90
76120;DHT22;64852;48.092;-1.640;2023-01-01T02:39:24;15.60;99.90
76120;DHT22;64852;48.092;-1.640;2023-01-01T02:41:53;15.70;99.90
76120;DHT22;64852;48.092;-1.640;2023-01-01T02:44:20;15.70;99.90
76120;DHT22;64852;48.092;-1.640;2023-01-01T02:46:47;15.80;99.90
76120;DHT22;64852;48.092;-1.640;2023-01-01T02:49:12;15.80;99.90
76120;DHT22;64852;48.092;-1.640;2023-01-01T02:54:36;16.00;99.90
76120;DHT22;64852;48.092;-1.640;2023-01-01T03:00:23;16.20;99.90
76120;DHT22;64852;48.092;-1.640;2023-01-01T03:11:16;16.20;99.90
76120;DHT22;64852;48.092;-1.640;2023-01-01T03:16:17;16.00;99.90
76120;DHT22;64852;48.092;-1.640;2023-01-01T03:21:19;16.30;99.90
76120;DHT22;64852;48.092;-1.640;2023-01-01T03:23:50;16.20;99.90
76120;DHT22;64852;48.092;-1.640;2023-01-01T03:26:20;16.20;99.90
76120;DHT22;64852;48.092;-1.640;2023-01-01T03:28:56;16.20;99.90
76120;DHT22;64852;48.092;-1.640;2023-01-01T03:31:24;16.30;99.90
76120;DHT22;64852;48.092;-1.640;2023-01-01T03:34:03;16.20;99.90
76120;DHT22;64852;48.092;-1.640;2023-01-01T03:36:34;16.40;99.90
76120;DHT22;64852;48.092;-1.640;2023-01-01T03:39:05;16.30;99.90
76120;DHT22;64852;48.092;-1.640;2023-01-01T03:41:38;16.20;99.90
76120;DHT22;64852;48.092;-1.640;2023-01-01T03:46:35;16.20;99.90
76120;DHT22;64852;48.092;-1.640;2023-01-01T03:49:03;16.20;99.90
76120;DHT22;64852;48.092;-1.640;2023-01-01T03:51:47;16.20;99.90
76120;DHT22;64852;48.092;-1.640;2023-01-01T03:57:43;15.90;99.90
76120;DHT22;64852;48.092;-1.640;2023-01-01T04:00:24;15.90;99.90
76120;DHT22;64852;48.092;-1.640;2023-01-01T04:02:58;16.00;99.90
76120;DHT22;64852;48.092;-1.640;2023-01-01T04:05:25;16.00;99.90
76120;DHT22;64852;48.092;-1.640;2023-01-01T04:07:51;16.20;99.90
76120;DHT22;64852;48.092;-1.640;2023-01-01T04:10:18;16.10;99.90
76120;DHT22;64852;48.092;-1.640;2023-01-01T04:12:50;16.20;99.90
76120;DHT22;64852;48.092;-1.640;2023-01-01T04:15:19;15.90;99.90
76120;DHT22;64852;48.092;-1.640;2023-01-01T04:17:45;15.90;99.90
76120;DHT22;64852;48.092;-1.640;2023-01-01T04:20:12;15.90;99.90
76120;DHT22;64852;48.092;-1.640;2023-01-01T04:22:38;15.90;99.90
76120;DHT22;64852;48.092;-1.640;2023-01-01T04:25:05;16.00;99.90
76120;DHT22;64852;48.092;-1.640;2023-01-01T04:27:31;16.00;99.90
76120;DHT22;64852;48.092;-1.640;2023-01-01T04:29:56;16.10;99.90
76120;DHT22;64852;48.092;-1.640;2023-01-01T04:32:22;16.00;99.90
76120;DHT22;64852;48.092;-1.640;2023-01-01T04:34:47;16.10;99.90
76120;DHT22;64852;48.092;-1.640;2023-01-01T04:37:13;16.00;99.90
76120;DHT22;64852;48.092;-1.640;2023-01-01T04:39:39;15.90;99.90
76120;DHT22;64852;48.092;-1.640;2023-01-01T04:42:05;15.80;99.90
76120;DHT22;64852;48.092;-1.640;2023-01-01T04:44:30;15.90;99.90
76120;DHT22;64852;48.092;-1.640;2023-01-01T04:46:56;15.90;99.90
76120;DHT22;64852;48.092;-1.640;2023-01-01T04:49:21;15.80;99.90
76120;DHT22;64852;48.092;-1.640;2023-01-01T04:51:47;15.80;99.90
76120;DHT22;64852;48.092;-1.640;2023-01-01T04:54:13;15.90;99.90
76120;DHT22;64852;48.092;-1.640;2023-01-01T04:56:38;16.00;99.90
76120;DHT22;64852;48.092;-1.640;2023-01-01T04:59:04;15.90;99.90
76120;DHT22;64852;48.092;-1.640;2023-01-01T05:01:30;15.90;99.90
76120;DHT22;64852;48.092;-1.640;2023-01-01T05:03:56;15.80;99.90
76120;DHT22;64852;48.092;-1.640;2023-01-01T05:06:23;15.80;99.90
76120;DHT22;64852;48.092;-1.640;2023-01-01T05:08:51;15.60;99.90
76120;DHT22;64852;48.092;-1.640;2023-01-01T05:11:24;15.50;99.90
76120;DHT22;64852;48.092;-1.640;2023-01-01T05:13:52;15.60;99.90
76120;DHT22;64852;48.092;-1.640;2023-01-01T05:16:20;15.70;99.90
76120;DHT22;64852;48.092;-1.640;2023-01-01T05:18:47;15.70;99.90
76120;DHT22;64852;48.092;-1.640;2023-01-01T05:21:23;15.60;99.90
76120;DHT22;64852;48.092;-1.640;2023-01-01T05:23:54;15.60;99.90
76120;DHT22;64852;48.092;-1.640;2023-01-01T05:26:22;15.70;99.90
76120;DHT22;64852;48.092;-1.640;2023-01-01T05:28:49;15.60;99.90
76120;DHT22;64852;48.092;-1.640;2023-01-01T05:31:17;15.50;99.90
76120;DHT22;64852;48.092;-1.640;2023-01-01T05:33:43;15.50;99.90
76120;DHT22;64852;48.092;-1.640;2023-01-01T05:36:29;15.50;99.90
76120;DHT22;64852;48.092;-1.640;2023-01-01T05:38:56;15.60;99.90
76120;DHT22;64852;48.092;-1.640;2023-01-01T05:41:22;15.50;99.90
76120;DHT22;64852;48.092;-1.640;2023-01-01T05:43:50;15.50;99.90
76120;DHT22;64852;48.092;-1.640;2023-01-01T05:46:19;15.40;99.90
76120;DHT22;64852;48.092;-1.640;2023-01-01T05:48:45;15.50;99.90
76120;DHT22;64852;48.092;-1.640;2023-01-01T05:51:16;15.40;99.90
76120;DHT22;64852;48.092;-1.640;2023-01-01T05:53:43;15.40;99.90
76120;DHT22;64852;48.092;-1.640;2023-01-01T05:56:09;15.30;99.90
76120;DHT22;64852;48.092;-1.640;2023-01-01T05:58:35;15.30;99.90
76120;DHT22;64852;48.092;-1.640;2023-01-01T06:03:47;15.30;99.90
76120;DHT22;64852;48.092;-1.640;2023-01-01T06:06:14;15.20;99.90
76120;DHT22;64852;48.092;-1.640;2023-01-01T06:08:40;15.20;99.90
76120;DHT22;64852;48.092;-1.640;2023-01-01T06:11:09;15.10;99.90
76120;DHT22;64852;48.092;-1.640;2023-01-01T06:13:36;15.10;99.90
76120;DHT22;64852;48.092;-1.640;2023-01-01T06:16:02;15.00;99.90
76120;DHT22;64852;48.092;-1.640;2023-01-01T06:18:30;14.80;99.90
76120;DHT22;64852;48.092;-1.640;2023-01-01T06:21:08;14.80;99.90
76120;DHT22;64852;48.092;-1.640;2023-01-01T06:23:33;14.70;99.90
76120;DHT22;64852;48.092;-1.640;2023-01-01T06:26:09;14.70;99.90
76120;DHT22;64852;48.092;-1.640;2023-01-01T06:28:35;15.00;99.90
76120;DHT22;64852;48.092;-1.640;2023-01-01T06:31:03;14.90;99.90
76120;DHT22;64852;48.092;-1.640;2023-01-01T06:33:29;14.80;99.90
76120;DHT22;64852;48.092;-1.640;2023-01-01T06:35:55;14.90;99.90
76120;DHT22;64852;48.092;-1.640;2023-01-01T06:38:20;15.10;99.90
76120;DHT22;64852;48.092;-1.640;2023-01-01T06:41:00;15.10;99.90
76120;DHT22;64852;48.092;-1.640;2023-01-01T06:43:28;15.20;99.90
76120;DHT22;64852;48.092;-1.640;2023-01-01T06:46:04;15.20;99.90
76120;DHT22;64852;48.092;-1.640;2023-01-01T06:48:31;15.10;99.90
76120;DHT22;64852;48.092;-1.640;2023-01-01T06:50:57;15.30;99.90
76120;DHT22;64852;48.092;-1.640;2023-01-01T06:53:24;15.30;99.90
76120;DHT22;64852;48.092;-1.640;2023-01-01T06:55:50;15.30;99.90
76120;DHT22;64852;48.092;-1.640;2023-01-01T06:58:16;15.30;99.90
76120;DHT22;64852;48.092;-1.640;2023-01-01T07:00:41;15.10;99.90
76120;DHT22;64852;48.092;-1.640;2023-01-01T07:03:09;15.20;99.90
76120;DHT22;64852;48.092;-1.640;2023-01-01T07:05:35;14.90;99.90
76120;DHT22;64852;48.092;-1.640;2023-01-01T07:08:01;15.00;99.90
76120;DHT22;64852;48.092;-1.640;2023-01-01T07:10:26;15.10;99.90
76120;DHT22;64852;48.092;-1.640;2023-01-01T07:12:52;15.20;99.90
76120;DHT22;64852;48.092;-1.640;2023-01-01T07:15:17;15.20;99.90
76120;DHT22;64852;48.092;-1.640;2023-01-01T07:17:43;15.20;99.90
76120;DHT22;64852;48.092;-1.640;2023-01-01T07:20:09;15.20;99.90
76120;DHT22;64852;48.092;-1.640;2023-01-01T07:22:36;15.30;99.90
76120;DHT22;64852;48.092;-1.640;2023-01-01T07:25:03;15.30;99.90
76120;DHT22;64852;48.092;-1.640;2023-01-01T07:27:29;15.30;99.90
76120;DHT22;64852;48.092;-1.640;2023-01-01T07:29:55;15.30;99.90
76120;DHT22;64852;48.092;-1.640;2023-01-01T07:32:20;15.40;99.90
76120;DHT22;64852;48.092;-1.640;2023-01-01T07:34:46;15.30;99.90
76120;DHT22;64852;48.092;-1.640;2023-01-01T07:37:12;15.40;99.90
76120;DHT22;64852;48.092;-1.640;2023-01-01T07:39:37;15.50;99.90
76120;DHT22;64852;48.092;-1.640;2023-01-01T07:42:03;15.50;99.90
76120;DHT22;64852;48.092;-1.640;2023-01-01T07:44:28;15.40;99.90
76120;DHT22;64852;48.092;-1.640;2023-01-01T07:47:04;15.30;99.90
76120;DHT22;64852;48.092;-1.640;2023-01-01T07:49:30;15.20;99.90
76120;DHT22;64852;48.092;-1.640;2023-01-01T07:51:56;15.10;99.90
76120;DHT22;64852;48.092;-1.640;2023-01-01T07:54:22;15.20;99.90
76120;DHT22;64852;48.092;-1.640;2023-01-01T07:56:47;15.10;99.90
76120;DHT22;64852;48.092;-1.640;2023-01-01T07:59:13;15.20;99.90
76120;DHT22;64852;48.092;-1.640;2023-01-01T08:01:38;15.10;99.90
76120;DHT22;64852;48.092;-1.640;2023-01-01T08:04:04;15.20;99.90
76120;DHT22;64852;48.092;-1.640;2023-01-01T08:06:30;15.20;99.90
76120;DHT22;64852;48.092;-1.640;2023-01-01T08:08:55;15.30;99.90
76120;DHT22;64852;48.092;-1.640;2023-01-01T08:11:21;15.30;99.90
76120;DHT22;64852;48.092;-1.640;2023-01-01T08:13:47;15.40;99.90
76120;DHT22;64852;48.092;-1.640;2023-01-01T08:16:12;15.40;99.90
76120;DHT22;64852;48.092;-1.640;2023-01-01T08:18:38;15.40;99.90
76120;DHT22;64852;48.092;-1.640;2023-01-01T08:21:04;15.40;99.90
76120;DHT22;64852;48.092;-1.640;2023-01-01T08:23:30;15.40;99.90
76120;DHT22;64852;48.092;-1.640;2023-01-01T08:26:00;15.40;99.90
76120;DHT22;64852;48.092;-1.640;2023-01-01T08:28:26;15.40;99.90
76120;DHT22;64852;48.092;-1.640;2023-01-01T08:30:52;15.40;99.90
76120;DHT22;64852;48.092;-1.640;2023-01-01T08:33:17;15.40;99.90
76120;DHT22;64852;48.092;-1.640;2023-01-01T08:35:43;15.40;99.90
76120;DHT22;64852;48.092;-1.640;2023-01-01T08:38:10;15.50;99.90
76120;DHT22;64852;48.092;-1.640;2023-01-01T08:40:36;15.40;99.90
76120;DHT22;64852;48.092;-1.640;2023-01-01T08:43:02;15.40;99.90
76120;DHT22;64852;48.092;-1.640;2023-01-01T08:45:27;15.50;99.90
76120;DHT22;64852;48.092;-1.640;2023-01-01T08:47:53;15.60;99.90
76120;DHT22;64852;48.092;-1.640;2023-01-01T08:50:19;15.60;99.90
76120;DHT22;64852;48.092;-1.640;2023-01-01T08:52:44;15.70;99.90
76120;DHT22;64852;48.092;-1.640;2023-01-01T08:55:10;15.70;99.90
76120;DHT22;64852;48.092;-1.640;2023-01-01T08:57:36;15.60;99.90
76120;DHT22;64852;48.092;-1.640;2023-01-01T09:00:01;15.70;99.90
76120;DHT22;64852;48.092;-1.640;2023-01-01T09:02:27;15.70;99.90
76120;DHT22;64852;48.092;-1.640;2023-01-01T09:04:53;15.80;99.90
76120;DHT22;64852;48.092;-1.640;2023-01-01T09:07:18;15.60;99.90
76120;DHT22;64852;48.092;-1.640;2023-01-01T09:09:44;15.70;99.90
76120;DHT22;64852;48.092;-1.640;2023-01-01T09:12:14;15.70;99.90
76120;DHT22;64852;48.092;-1.640;2023-01-01T09:14:40;15.70;99.90
76120;DHT22;64852;48.092;-1.640;2023-01-01T09:17:06;15.70;99.90
76120;DHT22;64852;48.092;-1.640;2023-01-01T09:19:32;15.70;99.90
76120;DHT22;64852;48.092;-1.640;2023-01-01T09:21:57;15.70;99.90
76120;DHT22;64852;48.092;-1.640;2023-01-01T09:24:23;15.80;99.90
76120;DHT22;64852;48.092;-1.640;2023-01-01T09:26:49;15.80;99.90
76120;DHT22;64852;48.092;-1.640;2023-01-01T09:29:15;15.60;99.90
76120;DHT22;64852;48.092;-1.640;2023-01-01T09:31:45;15.80;99.90
76120;DHT22;64852;48.092;-1.640;2023-01-01T09:34:11;15.80;99.90
76120;DHT22;64852;48.092;-1.640;2023-01-01T09:36:36;15.80;99.90
76120;DHT22;64852;48.092;-1.640;2023-01-01T09:39:02;15.80;99.90
76120;DHT22;64852;48.092;-1.640;2023-01-01T09:41:50;15.80;99.90
76120;DHT22;64852;48.092;-1.640;2023-01-01T09:47:35;15.90;99.90
76120;DHT22;64852;48.092;-1.640;2023-01-01T09:50:16;15.90;99.90
76120;DHT22;64852;48.092;-1.640;2023-01-01T09:53:00;16.00;99.90
76120;DHT22;64852;48.092;-1.640;2023-01-01T09:55:36;16.00;99.90
76120;DHT22;64852;48.092;-1.640;2023-01-01T09:58:02;16.00;99.90
76120;DHT22;64852;48.092;-1.640;2023-01-01T10:00:31;16.00;99.90
76120;DHT22;64852;48.092;-1.640;2023-01-01T10:14:57;16.10;99.90
76120;DHT22;64852;48.092;-1.640;2023-01-01T10:17:39;16.10;99.90
76120;DHT22;64852;48.092;-1.640;2023-01-01T10:20:19;16.10;99.90
76120;DHT22;64852;48.092;-1.640;2023-01-01T10:22:51;16.10;99.90
76120;DHT22;64852;48.092;-1.640;2023-01-01T10:25:23;16.20;99.90
76120;DHT22;64852;48.092;-1.640;2023-01-01T10:27:55;16.30;99.90
76120;DHT22;64852;48.092;-1.640;2023-01-01T10:30:23;16.20;99.90
76120;DHT22;64852;48.092;-1.640;2023-01-01T10:32:51;16.30;99.90
76120;DHT22;64852;48.092;-1.640;2023-01-01T10:35:20;16.40;99.90
76120;DHT22;64852;48.092;-1.640;2023-01-01T10:37:47;16.40;99.90
76120;DHT22;64852;48.092;-1.640;2023-01-01T10:40:21;16.40;99.90
76120;DHT22;64852;48.092;-1.640;2023-01-01T10:42:50;16.40;99.90
76120;DHT22;64852;48.092;-1.640;2023-01-01T10:45:18;16.40;99.90
76120;DHT22;64852;48.092;-1.640;2023-01-01T10:56:12;16.40;99.90
76120;DHT22;64852;48.092;-1.640;2023-01-01T10:58:48;16.30;99.90
76120;DHT22;64852;48.092;-1.640;2023-01-01T11:06:39;16.30;99.90
76120;DHT22;64852;48.092;-1.640;2023-01-01T11:09:25;16.30;99.90
76120;DHT22;64852;48.092;-1.640;2023-01-01T11:12:06;16.40;99.90
76120;DHT22;64852;48.092;-1.640;2023-01-01T11:14:42;16.30;99.90
76120;DHT22;64852;48.092;-1.640;2023-01-01T11:17:08;16.40;99.90
76120;DHT22;64852;48.092;-1.640;2023-01-01T11:19:38;16.40;99.90
76120;DHT22;64852;48.092;-1.640;2023-01-01T11:22:05;16.30;99.90
76120;DHT22;64852;48.092;-1.640;2023-01-01T11:24:33;16.20;99.90
76120;DHT22;64852;48.092;-1.640;2023-01-01T11:27:15;16.30;99.90
76120;DHT22;64852;48.092;-1.640;2023-01-01T11:29:42;16.30;99.90
76120;DHT22;64852;48.092;-1.640;2023-01-01T11:32:08;16.30;99.90
76120;DHT22;64852;48.092;-1.640;2023-01-01T11:34:39;16.20;99.90
76120;DHT22;64852;48.092;-1.640;2023-01-01T11:39:42;16.30;99.90
76120;DHT22;64852;48.092;-1.640;2023-01-01T11:42:09;16.30;99.90
76120;DHT22;64852;48.092;-1.640;2023-01-01T11:44:42;16.30;99.90
76120;DHT22;64852;48.092;-1.640;2023-01-01T11:49:57;16.30;99.90
76120;DHT22;64852;48.092;-1.640;2023-01-01T11:52:39;16.20;99.90
76120;DHT22;64852;48.092;-1.640;2023-01-01T12:00:34;16.20;99.90
76120;DHT22;64852;48.092;-1.640;2023-01-01T12:05:51;16.20;99.90
76120;DHT22;64852;48.092;-1.640;2023-01-01T12:08:31;16.20;99.90
76120;DHT22;64852;48.092;-1.640;2023-01-01T12:11:06;16.20;99.90
76120;DHT22;64852;48.092;-1.640;2023-01-01T12:16:57;16.10;99.90
76120;DHT22;64852;48.092;-1.640;2023-01-01T12:19:30;16.00;99.90
76120;DHT22;64852;48.092;-1.640;2023-01-01T12:21:59;15.90;99.90
76120;DHT22;64852;48.092;-1.640;2023-01-01T12:24:33;16.00;99.90
76120;DHT22;64852;48.092;-1.640;2023-01-01T12:32:27;15.90;99.90
76120;DHT22;64852;48.092;-1.640;2023-01-01T12:51:12;15.70;99.90
76120;DHT22;64852;48.092;-1.640;2023-01-01T12:59:09;15.80;99.90
76120;DHT22;64852;48.092;-1.640;2023-01-01T13:01:38;15.70;99.90
76120;DHT22;64852;48.092;-1.640;2023-01-01T13:04:05;15.80;99.90
76120;DHT22;64852;48.092;-1.640;2023-01-01T13:06:55;15.80;99.90
76120;DHT22;64852;48.092;-1.640;2023-01-01T13:09:45;15.80;99.90
76120;DHT22;64852;48.092;-1.640;2023-01-01T13:12:18;15.70;99.90
76120;DHT22;64852;48.092;-1.640;2023-01-01T13:14:46;15.80;99.90
76120;DHT22;64852;48.092;-1.640;2023-01-01T13:19:44;15.80;99.90
76120;DHT22;64852;48.092;-1.640;2023-01-01T13:22:36;15.90;99.90
76120;DHT22;64852;48.092;-1.640;2023-01-01T13:33:25;15.90;99.90
76120;DHT22;64852;48.092;-1.640;2023-01-01T13:38:56;16.00;99.90
76120;DHT22;64852;48.092;-1.640;2023-01-01T13:44:18;16.00;99.90
76120;DHT22;64852;48.092;-1.640;2023-01-01T13:50:04;16.00;99.90
76120;DHT22;64852;48.092;-1.640;2023-01-01T13:53:04;16.10;99.90
76120;DHT22;64852;48.092;-1.640;2023-01-01T13:58:34;16.10;99.90
76120;DHT22;64852;48.092;-1.640;2023-01-01T14:03:42;16.20;99.90
76120;DHT22;64852;48.092;-1.640;2023-01-01T14:06:38;16.20;99.90
76120;DHT22;64852;48.092;-1.640;2023-01-01T14:09:11;16.10;99.90
76120;DHT22;64852;48.092;-1.640;2023-01-01T14:11:37;16.20;99.90
76120;DHT22;64852;48.092;-1.640;2023-01-01T14:14:37;16.20;99.90
76120;DHT22;64852;48.092;-1.640;2023-01-01T14:17:05;16.20;99.90
76120;DHT22;64852;48.092;-1.640;2023-01-01T14:19:32;16.20;99.90
76120;DHT22;64852;48.092;-1.640;2023-01-01T14:21:58;16.20;99.90
76120;DHT22;64852;48.092;-1.640;2023-01-01T14:24:24;16.20;99.90
76120;DHT22;64852;48.092;-1.640;2023-01-01T14:26:51;16.20;99.90
76120;DHT22;64852;48.092;-1.640;2023-01-01T14:29:26;16.20;99.90
76120;DHT22;64852;48.092;-1.640;2023-01-01T14:31:52;16.10;99.90
76120;DHT22;64852;48.092;-1.640;2023-01-01T14:34:32;16.10;99.90
76120;DHT22;64852;48.092;-1.640;2023-01-01T14:37:00;16.10;99.90
76120;DHT22;64852;48.092;-1.640;2023-01-01T14:39:31;16.20;99.90
76120;DHT22;64852;48.092;-1.640;2023-01-01T14:42:05;16.10;99.90
76120;DHT22;64852;48.092;-1.640;2023-01-01T14:44:38;16.10;99.90
76120;DHT22;64852;48.092;-1.640;2023-01-01T14:47:08;16.10;99.90
76120;DHT22;64852;48.092;-1.640;2023-01-01T14:49:41;16.10;99.90
76120;DHT22;64852;48.092;-1.640;2023-01-01T14:52:12;16.10;99.90
76120;DHT22;64852;48.092;-1.640;2023-01-01T14:54:42;16.00;99.90
76120;DHT22;64852;48.092;-1.640;2023-01-01T14:57:54;16.00;99.90
76120;DHT22;64852;48.092;-1.640;2023-01-01T15:00:28;16.00;99.90
76120;DHT22;64852;48.092;-1.640;2023-01-01T15:02:54;15.90;99.90
76120;DHT22;64852;48.092;-1.640;2023-01-01T15:05:31;15.90;99.90
76120;DHT22;64852;48.092;-1.640;2023-01-01T15:07:58;16.00;99.90
76120;DHT22;64852;48.092;-1.640;2023-01-01T15:10:29;16.00;99.90
76120;DHT22;64852;48.092;-1.640;2023-01-01T15:12:56;16.00;99.90
76120;DHT22;64852;48.092;-1.640;2023-01-01T15:15:47;16.00;99.90
76120;DHT22;64852;48.092;-1.640;2023-01-01T15:20:58;16.00;99.90
76120;DHT22;64852;48.092;-1.640;2023-01-01T15:23:23;15.90;99.90
76120;DHT22;64852;48.092;-1.640;2023-01-01T15:25:49;15.80;99.90
76120;DHT22;64852;48.092;-1.640;2023-01-01T15:28:18;15.80;99.90
76120;DHT22;64852;48.092;-1.640;2023-01-01T15:30:51;15.70;99.90
76120;DHT22;64852;48.092;-1.640;2023-01-01T15:33:18;15.70;99.90
76120;DHT22;64852;48.092;-1.640;2023-01-01T15:35:48;15.70;99.90
76120;DHT22;64852;48.092;-1.640;2023-01-01T15:38:25;15.70;99.90
76120;DHT22;64852;48.092;-1.640;2023-01-01T15:40:51;15.60;99.90
76120;DHT22;64852;48.092;-1.640;2023-01-01T15:46:10;15.60;99.90
76120;DHT22;64852;48.092;-1.640;2023-01-01T15:48:45;15.60;99.90
76120;DHT22;64852;48.092;-1.640;2023-01-01T15:51:11;15.60;99.90
76120;DHT22;64852;48.092;-1.640;2023-01-01T15:53:53;15.60;99.90
76120;DHT22;64852;48.092;-1.640;2023-01-01T15:56:23;15.50;99.90
76120;DHT22;64852;48.092;-1.640;2023-01-01T16:01:26;15.50;99.90
76120;DHT22;64852;48.092;-1.640;2023-01-01T16:04:22;15.50;99.90
76120;DHT22;64852;48.092;-1.640;2023-01-01T16:06:51;15.50;99.90
76120;DHT22;64852;48.092;-1.640;2023-01-01T16:09:19;15.40;99.90
76120;DHT22;64852;48.092;-1.640;2023-01-01T16:11:45;15.50;99.90
76120;DHT22;64852;48.092;-1.640;2023-01-01T16:14:11;15.50;99.90
76120;DHT22;64852;48.092;-1.640;2023-01-01T16:16:50;15.40;99.90
76120;DHT22;64852;48.092;-1.640;2023-01-01T16:19:17;15.40;99.90
76120;DHT22;64852;48.092;-1.640;2023-01-01T16:21:44;15.50;99.90
76120;DHT22;64852;48.092;-1.640;2023-01-01T16:24:16;15.40;99.90
76120;DHT22;64852;48.092;-1.640;2023-01-01T16:26:43;15.50;99.90
76120;DHT22;64852;48.092;-1.640;2023-01-01T16:29:09;15.50;99.90
76120;DHT22;64852;48.092;-1.640;2023-01-01T16:31:35;15.50;99.90
76120;DHT22;64852;48.092;-1.640;2023-01-01T16:34:01;15.50;99.90
76120;DHT22;64852;48.092;-1.640;2023-01-01T16:36:27;15.50;99.90
76120;DHT22;64852;48.092;-1.640;2023-01-01T16:38:54;15.50;99.90
76120;DHT22;64852;48.092;-1.640;2023-01-01T16:41:20;15.60;99.90
76120;DHT22;64852;48.092;-1.640;2023-01-01T16:43:46;15.60;99.90
76120;DHT22;64852;48.092;-1.640;2023-01-01T16:46:12;15.70;99.90
76120;DHT22;64852;48.092;-1.640;2023-01-01T16:48:38;15.60;99.90
76120;DHT22;64852;48.092;-1.640;2023-01-01T16:51:05;15.60;99.90
76120;DHT22;64852;48.092;-1.640;2023-01-01T16:53:31;15.60;99.90
76120;DHT22;64852;48.092;-1.640;2023-01-01T16:55:57;15.60;99.90
76120;DHT22;64852;48.092;-1.640;2023-01-01T16:58:23;15.70;99.90
76120;DHT22;64852;48.092;-1.640;2023-01-01T17:00:49;15.60;99.90
76120;DHT22;64852;48.092;-1.640;2023-01-01T17:03:15;15.70;99.90
76120;DHT22;64852;48.092;-1.640;2023-01-01T17:05:41;15.60;99.90
76120;DHT22;64852;48.092;-1.640;2023-01-01T17:08:06;15.60;99.90
76120;DHT22;64852;48.092;-1.640;2023-01-01T17:10:32;15.60;99.90
76120;DHT22;64852;48.092;-1.640;2023-01-01T17:12:58;15.60;99.90
76120;DHT22;64852;48.092;-1.640;2023-01-01T17:15:30;15.60;99.90
76120;DHT22;64852;48.092;-1.640;2023-01-01T17:17:56;15.60;99.90
76120;DHT22;64852;48.092;-1.640;2023-01-01T17:20:23;15.50;99.90
76120;DHT22;64852;48.092;-1.640;2023-01-01T17:22:49;15.60;99.90
76120;DHT22;64852;48.092;-1.640;2023-01-01T17:25:15;15.60;99.90
76120;DHT22;64852;48.092;-1.640;2023-01-01T17:27:40;15.60;99.90
76120;DHT22;64852;48.092;-1.640;2023-01-01T17:30:07;15.50;99.90
76120;DHT22;64852;48.092;-1.640;2023-01-01T17:32:33;15.50;99.90
76120;DHT22;64852;48.092;-1.640;2023-01-01T17:35:00;15.60;99.90
76120;DHT22;64852;48.092;-1.640;2023-01-01T17:37:25;15.50;99.90
76120;DHT22;64852;48.092;-1.640;2023-01-01T17:39:51;15.50;99.90
76120;DHT22;64852;48.092;-1.640;2023-01-01T17:42:17;15.50;99.90
76120;DHT22;64852;48.092;-1.640;2023-01-01T17:44:42;15.50;99.90
76120;DHT22;64852;48.092;-1.640;2023-01-01T17:47:08;15.50;99.90
76120;DHT22;64852;48.092;-1.640;2023-01-01T17:49:34;15.60;99.90
76120;DHT22;64852;48.092;-1.640;2023-01-01T17:51:59;15.50;99.90
76120;DHT22;64852;48.092;-1.640;2023-01-01T17:54:25;15.60;99.90
76120;DHT22;64852;48.092;-1.640;2023-01-01T17:56:50;15.60;99.90